Time;durP1;ratioP1;P1;durP2;ratioP2;P2;SDS_P1;SDS_P2;PMS_P1;PMS_P2;Temp;Humidity;BMP_temperature;BMP_pressure;BME280_temperature;BME280_humidity;BME280_pressure;Samples;Min_cycle;Max_cycle;Signal;HPM_P1;HPM_P2
2021/07/16 06:12:14;;;;;;;37.25;6.80;;;16.80;99.90;;;;;;3643690;39;20663;-92
2021/07/16 06:14:41;;;;;;;43.80;7.50;;;16.80;99.90;;;;;;3639226;39;20405;-88
2021/07/16 06:17:15;;;;;;;37.45;7.47;;;16.90;99.90;;;;;;3639857;39;20050;-85
2021/07/16 06:19:41;;;;;;;36.38;7.90;;;16.80;99.90;;;;;;3635677;39;20050;-86
2021/07/16 06:22:07;;;;;;;33.58;6.20;;;16.80;99.90;;;;;;3639430;39;20046;-86
2021/07/16 06:24:32;;;;;;;43.67;8.40;;;16.90;99.90;;;;;;3640301;39;20269;-89
2021/07/16 06:26:58;;;;;;;35.72;7.38;;;16.90;99.90;;;;;;3644546;39;20192;-85
2021/07/16 06:29:24;;;;;;;39.67;7.90;;;16.90;99.90;;;;;;3638221;39;20416;-87
2021/07/16 06:31:49;;;;;;;35.83;6.68;;;16.90;99.90;;;;;;3637166;39;20066;-86
2021/07/16 06:34:15;;;;;;;33.45;6.63;;;16.90;99.90;;;;;;3645661;39;20054;-84
2021/07/16 06:36:41;;;;;;;37.53;6.18;;;16.90;99.90;;;;;;3635546;39;20152;-86
2021/07/16 06:39:08;;;;;;;35.78;7.32;;;17.00;99.90;;;;;;3622858;39;20107;-85
2021/07/16 06:41:33;;;;;;;34.42;7.53;;;17.00;99.90;;;;;;3621681;39;20062;-85
2021/07/16 06:43:59;;;;;;;39.85;6.50;;;17.00;99.90;;;;;;3620988;39;20061;-84
2021/07/16 06:46:25;;;;;;;39.67;7.88;;;17.00;99.90;;;;;;3623242;39;20232;-86
2021/07/16 06:48:50;;;;;;;35.53;6.63;;;17.10;99.90;;;;;;3618515;39;20047;-86
2021/07/16 06:51:17;;;;;;;27.60;5.93;;;17.10;99.90;;;;;;3619756;39;20042;-84
2021/07/16 06:53:43;;;;;;;36.85;6.93;;;17.10;99.90;;;;;;3622663;39;20400;-83
2021/07/16 06:56:09;;;;;;;33.03;7.03;;;17.10;99.90;;;;;;3622777;39;20138;-87
2021/07/16 06:58:35;;;;;;;39.42;6.43;;;17.20;99.90;;;;;;3624047;39;20290;-85
2021/07/16 07:01:00;;;;;;;29.45;6.70;;;17.20;99.90;;;;;;3622982;39;20138;-84
2021/07/16 07:03:27;;;;;;;27.55;6.75;;;17.30;99.90;;;;;;3622236;39;20043;-86
2021/07/16 07:05:56;;;;;;;34.60;5.75;;;17.30;99.90;;;;;;3619848;39;20047;-84
2021/07/16 07:08:22;;;;;;;35.25;7.32;;;17.40;99.90;;;;;;3619530;39;20429;-86
2021/07/16 07:10:48;;;;;;;26.65;6.25;;;17.40;99.90;;;;;;3622067;39;20039;-87
2021/07/16 07:13:15;;;;;;;28.95;5.97;;;17.50;99.90;;;;;;3612876;39;20050;-86
2021/07/16 07:15:42;;;;;;;39.72;6.57;;;17.60;99.90;;;;;;3622126;39;20050;-87
2021/07/16 07:18:08;;;;;;;27.33;6.63;;;17.60;99.90;;;;;;3622761;39;20050;-85
2021/07/16 07:20:35;;;;;;;33.72;8.07;;;17.80;99.90;;;;;;3610523;39;20043;-87
2021/07/16 07:23:03;;;;;;;31.20;6.93;;;17.70;99.90;;;;;;3617141;39;20052;-85
2021/07/16 07:25:29;;;;;;;32.08;6.57;;;17.50;99.90;;;;;;3626441;39;20074;-85
2021/07/16 07:27:54;;;;;;;31.23;6.18;;;17.50;99.90;;;;;;3615427;39;20058;-85
2021/07/16 07:30:20;;;;;;;34.05;7.75;;;17.60;99.90;;;;;;3615896;39;20047;-86
2021/07/16 07:41:12;;;;;;;36.45;6.43;;;17.50;99.90;;;;;;3640907;22;1245625;-76
2021/07/16 07:43:38;;;;;;;30.40;7.15;;;17.60;99.90;;;;;;3599652;39;20047;-76
2021/07/16 07:46:04;;;;;;;35.38;7.10;;;17.60;99.90;;;;;;3603606;39;20060;-78
2021/07/16 07:48:30;;;;;;;34.88;6.70;;;17.70;99.90;;;;;;3594891;39;20137;-78
2021/07/16 07:50:57;;;;;;;29.65;6.57;;;17.70;99.90;;;;;;3602011;39;20353;-78
2021/07/16 07:53:22;;;;;;;33.35;7.03;;;17.60;99.90;;;;;;3601669;39;20059;-78
2021/07/16 07:55:48;;;;;;;27.50;6.90;;;17.80;99.90;;;;;;3602247;39;20047;-76
2021/07/16 07:58:14;;;;;;;36.40;7.88;;;17.60;99.90;;;;;;3599421;39;20149;-79
2021/07/16 08:00:39;;;;;;;41.20;7.53;;;17.60;99.90;;;;;;3602359;39;20051;-77
2021/07/16 08:03:05;;;;;;;39.00;6.90;;;17.70;99.90;;;;;;3601633;39;20060;-78
2021/07/16 08:05:31;;;;;;;29.02;6.53;;;17.70;99.90;;;;;;3595219;39;20052;-77
2021/07/16 08:07:56;;;;;;;32.33;6.20;;;17.70;99.90;;;;;;3600219;39;20053;-80
2021/07/16 08:10:22;;;;;;;42.25;7.65;;;17.80;99.90;;;;;;3599110;39;20597;-78
2021/07/16 08:12:48;;;;;;;39.47;8.65;;;17.80;99.90;;;;;;3601066;39;20043;-79
2021/07/16 08:15:16;;;;;;;27.60;6.75;;;17.80;99.90;;;;;;3603636;39;20386;-80
2021/07/16 08:17:42;;;;;;;33.22;6.72;;;17.70;99.90;;;;;;3601983;39;20036;-80
2021/07/16 08:20:09;;;;;;;37.75;7.30;;;17.80;99.90;;;;;;3597980;39;20084;-75
2021/07/16 08:22:36;;;;;;;29.33;7.05;;;17.90;99.90;;;;;;3598212;39;20097;-77
2021/07/16 08:25:03;;;;;;;27.15;6.00;;;17.70;99.90;;;;;;3598640;39;20047;-79
2021/07/16 08:27:28;;;;;;;44.10;7.82;;;17.90;99.90;;;;;;3599834;39;20048;-79
2021/07/16 08:29:54;;;;;;;34.22;6.88;;;17.90;99.90;;;;;;3598544;39;20085;-78
2021/07/16 08:32:20;;;;;;;34.08;6.85;;;17.80;99.90;;;;;;3603421;39;20120;-78
2021/07/16 08:34:45;;;;;;;36.72;8.00;;;17.90;99.90;;;;;;3597216;39;20088;-79
2021/07/16 08:37:11;;;;;;;34.30;7.40;;;18.10;99.90;;;;;;3595262;39;20318;-78
2021/07/16 08:39:36;;;;;;;35.08;7.03;;;17.90;99.90;;;;;;3598642;39;20059;-79
2021/07/16 08:42:03;;;;;;;28.35;5.90;;;17.90;99.90;;;;;;3602403;39;20055;-78
2021/07/16 08:44:30;;;;;;;37.00;7.75;;;18.00;99.90;;;;;;3599919;39;20405;-79
2021/07/16 08:46:56;;;;;;;33.17;7.80;;;17.90;99.90;;;;;;3603193;39;20468;-78
2021/07/16 08:49:24;;;;;;;38.33;8.30;;;18.10;99.90;;;;;;3597809;39;20055;-77
2021/07/16 08:51:50;;;;;;;28.27;6.97;;;18.20;99.90;;;;;;3592400;39;20404;-75
2021/07/16 08:54:18;;;;;;;37.05;7.00;;;18.00;99.90;;;;;;3591516;40;20040;-77
2021/07/16 08:56:45;;;;;;;41.58;8.00;;;18.10;99.90;;;;;;3595987;39;20052;-76
2021/07/16 08:59:15;;;;;;;43.97;8.70;;;18.20;99.90;;;;;;3592026;39;20413;-76
2021/07/16 09:01:43;;;;;;;33.78;8.38;;;18.30;99.90;;;;;;3594796;39;20441;-76
2021/07/16 09:04:09;;;;;;;38.20;7.38;;;18.10;99.90;;;;;;3590009;39;20067;-77
2021/07/16 09:06:55;;;;;;;33.05;7.35;;;18.10;99.90;;;;;;3592791;39;20084;-75
2021/07/16 09:09:31;;;;;;;47.13;8.23;;;18.10;99.90;;;;;;3591939;40;20090;-77
2021/07/16 09:11:58;;;;;;;30.77;6.57;;;18.20;99.90;;;;;;3585564;40;20055;-75
2021/07/16 09:14:27;;;;;;;32.22;7.68;;;18.10;99.90;;;;;;3587871;40;20053;-75
2021/07/16 09:17:02;;;;;;;32.90;7.20;;;18.30;99.90;;;;;;3584478;40;20307;-75
2021/07/16 09:19:48;;;;;;;36.40;7.93;;;18.10;99.90;;;;;;3591323;40;20165;-75
2021/07/16 09:22:22;;;;;;;30.38;6.45;;;18.20;99.90;;;;;;3592496;39;20074;-75
2021/07/16 09:24:59;;;;;;;33.05;8.40;;;18.20;99.90;;;;;;3593914;40;20141;-75
2021/07/16 09:27:30;;;;;;;24.90;6.30;;;18.30;99.90;;;;;;3587906;40;20075;-76
2021/07/16 09:30:09;;;;;;;36.35;8.20;;;18.70;99.90;;;;;;3587894;40;20338;-76
2021/07/16 09:32:43;;;;;;;27.00;6.97;;;18.50;99.90;;;;;;3592230;40;20044;-75
2021/07/16 09:35:09;;;;;;;31.13;8.45;;;18.60;99.90;;;;;;3594980;39;20442;-77
2021/07/16 09:37:55;;;;;;;39.50;7.28;;;18.40;99.90;;;;;;3594319;39;20052;-78
2021/07/16 09:40:28;;;;;;;36.25;8.52;;;18.60;99.90;;;;;;3586078;40;20126;-76
2021/07/16 09:42:59;;;;;;;32.30;7.72;;;18.60;99.90;;;;;;3591465;40;20046;-77
2021/07/16 09:45:25;;;;;;;35.53;7.35;;;18.60;99.90;;;;;;3589605;39;20039;-76
2021/07/16 09:47:51;;;;;;;33.03;7.90;;;18.50;99.90;;;;;;3585325;40;20065;-77
2021/07/16 09:50:20;;;;;;;31.90;7.10;;;18.70;99.90;;;;;;3584874;40;20174;-76
2021/07/16 09:52:46;;;;;;;33.90;7.13;;;19.00;99.90;;;;;;3584589;40;20040;-76
2021/07/16 09:55:16;;;;;;;25.75;7.30;;;18.90;99.90;;;;;;3585620;40;20067;-77
2021/07/16 09:57:52;;;;;;;39.50;8.57;;;18.80;99.90;;;;;;3588173;40;20059;-75
2021/07/16 10:00:18;;;;;;;27.85;7.78;;;18.90;99.90;;;;;;3591761;39;20055;-75
2021/07/16 10:02:50;;;;;;;30.83;7.38;;;19.00;99.90;;;;;;3593223;39;20054;-75
2021/07/16 10:05:15;;;;;;;31.95;7.05;;;19.00;99.90;;;;;;3593040;40;20376;-75
2021/07/16 10:07:42;;;;;;;37.13;8.15;;;19.20;99.90;;;;;;3592792;40;20043;-74
2021/07/16 10:10:17;;;;;;;30.80;6.18;;;19.20;99.90;;;;;;3588284;40;20055;-75
2021/07/16 10:12:47;;;;;;;27.42;6.10;;;19.50;99.90;;;;;;3586372;40;20425;-76
2021/07/16 10:15:14;;;;;;;31.35;7.55;;;19.70;99.90;;;;;;3587296;40;20067;-78
2021/07/16 10:17:41;;;;;;;37.17;7.75;;;19.60;99.90;;;;;;3595357;39;20067;-77
2021/07/16 10:20:11;;;;;;;31.23;8.45;;;19.50;99.90;;;;;;3586437;39;20107;-77
2021/07/16 10:22:42;;;;;;;37.55;7.85;;;19.20;99.90;;;;;;3585664;40;20088;-77
2021/07/16 10:25:10;;;;;;;41.65;8.38;;;19.20;99.90;;;;;;3595601;40;20058;-76
2021/07/16 10:27:35;;;;;;;39.00;8.25;;;19.30;99.90;;;;;;3595119;39;20060;-77
2021/07/16 10:30:10;;;;;;;38.10;8.32;;;19.10;99.90;;;;;;3594612;39;20317;-75
2021/07/16 10:32:52;;;;;;;35.00;8.95;;;19.00;99.90;;;;;;3590917;39;20436;-80
2021/07/16 10:35:29;;;;;;;38.58;8.43;;;19.10;99.90;;;;;;3593901;40;20359;-80
2021/07/16 10:38:02;;;;;;;35.78;9.00;;;18.90;99.90;;;;;;3589009;40;20130;-77
2021/07/16 10:40:34;;;;;;;32.78;6.93;;;19.00;99.90;;;;;;3598048;39;20084;-78
2021/07/16 10:42:59;;;;;;;36.65;8.27;;;19.10;99.90;;;;;;3585417;40;20059;-78
2021/07/16 10:45:37;;;;;;;32.50;8.15;;;18.90;99.90;;;;;;3592685;39;20067;-78
2021/07/16 10:48:20;;;;;;;32.75;7.13;;;19.00;99.90;;;;;;3593687;40;20055;-76
2021/07/16 10:50:50;;;;;;;33.38;7.63;;;19.00;99.90;;;;;;3586426;40;20052;-78
2021/07/16 10:53:28;;;;;;;26.00;7.30;;;19.30;99.90;;;;;;3584863;40;20064;-78
2021/07/16 10:55:56;;;;;;;38.97;8.35;;;19.30;99.90;;;;;;3586608;40;20087;-76
2021/07/16 10:58:23;;;;;;;34.55;8.35;;;19.10;99.90;;;;;;3593489;40;20056;-77
2021/07/16 11:00:50;;;;;;;39.10;8.80;;;18.90;99.90;;;;;;3595682;40;20146;-78
2021/07/16 11:03:15;;;;;;;34.85;8.23;;;19.00;99.90;;;;;;3595076;39;20136;-78
2021/07/16 11:05:47;;;;;;;34.65;7.63;;;19.10;99.90;;;;;;3585614;40;20088;-77
2021/07/16 11:08:34;;;;;;;32.00;7.68;;;19.10;99.90;;;;;;3592018;40;20048;-77
2021/07/16 11:11:10;;;;;;;31.52;7.20;;;19.80;99.90;;;;;;3596099;39;20058;-77
2021/07/16 11:13:38;;;;;;;39.17;8.38;;;19.60;99.90;;;;;;3594987;39;20086;-77
2021/07/16 11:16:16;;;;;;;34.08;8.73;;;19.50;99.90;;;;;;3598501;39;20103;-75
2021/07/16 11:18:56;;;;;;;38.83;9.25;;;19.50;99.90;;;;;;3590765;40;20055;-77
2021/07/16 11:21:40;;;;;;;33.47;8.98;;;19.50;99.90;;;;;;3592734;40;20057;-78
2021/07/16 11:24:18;;;;;;;25.17;6.93;;;19.70;99.90;;;;;;3593234;39;20047;-77
2021/07/16 11:26:57;;;;;;;31.70;7.10;;;20.10;99.90;;;;;;3594240;39;20059;-76
2021/07/16 11:29:24;;;;;;;31.95;7.63;;;19.80;99.90;;;;;;3593502;39;20328;-78
2021/07/16 11:32:00;;;;;;;32.28;7.38;;;19.90;99.90;;;;;;3594634;39;20056;-76
2021/07/16 11:34:26;;;;;;;31.13;8.48;;;20.10;99.90;;;;;;3593668;40;20074;-77
2021/07/16 11:36:53;;;;;;;36.53;8.13;;;19.80;99.90;;;;;;3594301;39;20079;-76
2021/07/16 11:39:37;;;;;;;30.13;7.50;;;19.60;99.90;;;;;;3593751;39;20328;-76
2021/07/16 11:42:04;;;;;;;39.45;8.57;;;19.50;99.90;;;;;;3594480;39;20080;-77
2021/07/16 11:44:33;;;;;;;36.60;8.52;;;19.50;99.90;;;;;;3593542;39;20064;-76
2021/07/16 11:47:15;;;;;;;37.20;9.45;;;19.70;99.90;;;;;;3594989;39;20328;-77
2021/07/16 11:49:46;;;;;;;33.67;8.80;;;19.90;99.90;;;;;;3594380;39;20055;-77
2021/07/16 11:52:19;;;;;;;33.30;6.95;;;20.10;99.90;;;;;;3591782;39;20133;-74
2021/07/16 11:54:45;;;;;;;38.20;7.70;;;19.80;99.90;;;;;;3593784;39;20312;-77
2021/07/16 11:57:14;;;;;;;32.97;7.88;;;19.80;99.90;;;;;;3594714;39;20083;-77
2021/07/16 11:59:51;;;;;;;31.80;7.60;;;20.00;99.90;;;;;;3594289;39;20275;-77
2021/07/16 12:02:22;;;;;;;41.72;8.82;;;20.10;99.90;;;;;;3586403;39;20410;-77
2021/07/16 12:04:50;;;;;;;33.78;8.68;;;19.90;99.90;;;;;;3589148;40;20055;-78
2021/07/16 12:07:17;;;;;;;32.40;8.27;;;20.20;99.90;;;;;;3591249;39;20134;-77
2021/07/16 12:09:48;;;;;;;32.53;8.45;;;20.10;99.90;;;;;;3590133;40;20056;-77
2021/07/16 12:12:16;;;;;;;32.95;8.48;;;20.00;99.90;;;;;;3594936;39;20067;-78
2021/07/16 12:14:45;;;;;;;39.25;7.68;;;19.80;99.90;;;;;;3593754;39;20401;-77
2021/07/16 12:17:12;;;;;;;37.35;8.57;;;19.70;99.90;;;;;;3591806;39;20089;-76
2021/07/16 12:19:38;;;;;;;32.38;7.78;;;19.70;99.90;;;;;;3588710;39;20056;-77
2021/07/16 12:22:04;;;;;;;36.33;8.00;;;19.60;99.90;;;;;;3583896;40;20052;-77
2021/07/16 12:24:30;;;;;;;52.65;9.65;;;19.90;99.90;;;;;;3586641;40;20133;-76
2021/07/16 12:27:06;;;;;;;40.55;9.07;;;19.60;99.90;;;;;;3592412;39;20050;-77
2021/07/16 12:29:33;;;;;;;34.83;9.00;;;19.80;99.90;;;;;;3594099;39;20082;-77
2021/07/16 12:31:59;;;;;;;37.95;8.25;;;19.80;99.90;;;;;;3595265;39;20424;-78
2021/07/16 12:34:26;;;;;;;35.67;8.63;;;19.90;99.90;;;;;;3593949;40;20052;-78
2021/07/16 12:37:06;;;;;;;33.75;8.50;;;20.00;99.90;;;;;;3595516;39;20059;-77
2021/07/16 12:39:32;;;;;;;35.17;8.48;;;19.90;99.90;;;;;;3599340;39;20060;-75
2021/07/16 12:42:18;;;;;;;33.80;8.27;;;19.70;99.90;;;;;;3592619;40;20171;-75
2021/07/16 12:45:11;;;;;;;31.02;7.20;;;19.80;99.90;;;;;;3593080;40;20051;-75
2021/07/16 12:47:49;;;;;;;27.17;8.55;;;19.90;99.90;;;;;;3588205;39;20090;-73
2021/07/16 12:50:22;;;;;;;27.27;7.55;;;19.90;99.90;;;;;;3587917;40;20068;-74
2021/07/16 12:52:56;;;;;;;35.05;7.30;;;19.80;99.90;;;;;;3588312;40;20388;-80
2021/07/16 12:55:23;;;;;;;29.33;7.55;;;19.70;99.90;;;;;;3592693;39;20342;-81
2021/07/16 12:57:59;;;;;;;30.50;8.75;;;19.80;99.90;;;;;;3594143;39;20101;-81
2021/07/16 13:00:25;;;;;;;33.42;8.60;;;20.10;99.90;;;;;;3594442;40;20059;-82
2021/07/16 13:03:11;;;;;;;29.52;8.30;;;19.90;99.90;;;;;;3590527;40;20098;-82
2021/07/16 13:05:37;;;;;;;30.65;8.77;;;19.80;99.90;;;;;;3595336;39;20048;-82
2021/07/16 13:08:23;;;;;;;39.95;9.98;;;19.80;99.90;;;;;;3596216;40;20046;-79
2021/07/16 13:11:02;;;;;;;28.40;7.00;;;20.00;99.90;;;;;;3595645;40;20044;-81
2021/07/16 13:13:31;;;;;;;27.35;7.40;;;19.60;99.90;;;;;;3593525;40;20324;-80
2021/07/16 13:16:24;;;;;;;37.65;8.57;;;20.00;99.90;;;;;;3590294;40;20390;-81
2021/07/16 13:18:54;;;;;;;38.27;7.93;;;20.20;99.90;;;;;;3592759;40;20114;-82
2021/07/16 13:21:20;;;;;;;33.08;8.93;;;20.00;99.90;;;;;;3594682;39;20040;-83
2021/07/16 13:23:46;;;;;;;34.20;8.63;;;19.80;99.90;;;;;;3590517;39;20044;-81
2021/07/16 13:26:14;;;;;;;32.10;8.07;;;19.60;99.90;;;;;;3595207;40;20054;-86
2021/07/16 13:28:41;;;;;;;38.00;7.15;;;19.50;99.90;;;;;;3592694;39;20052;-82
2021/07/16 13:31:08;;;;;;;38.13;7.63;;;19.60;99.90;;;;;;3586443;40;20154;-78
2021/07/16 13:33:35;;;;;;;40.65;8.23;;;19.60;99.90;;;;;;3593931;40;20531;-78
2021/07/16 13:36:02;;;;;;;30.73;6.93;;;19.30;99.90;;;;;;3594916;39;20055;-79
2021/07/16 13:38:30;;;;;;;36.22;7.75;;;19.80;99.90;;;;;;3594850;39;20067;-82
2021/07/16 13:41:01;;;;;;;33.53;9.18;;;19.60;99.90;;;;;;3594598;39;20407;-79
2021/07/16 13:43:27;;;;;;;36.95;8.57;;;19.60;99.90;;;;;;3594197;40;20099;-82
2021/07/16 13:45:53;;;;;;;31.40;7.72;;;19.60;99.90;;;;;;3595730;39;20089;-80
2021/07/16 13:48:20;;;;;;;35.65;7.50;;;19.50;99.90;;;;;;3592663;39;20052;-82
2021/07/16 13:50:46;;;;;;;33.13;8.75;;;19.70;99.90;;;;;;3591039;40;20142;-80
2021/07/16 13:53:11;;;;;;;44.90;9.75;;;20.00;99.90;;;;;;3595115;39;20384;-79
2021/07/16 13:55:37;;;;;;;31.00;8.43;;;19.70;99.90;;;;;;3595047;40;20178;-79
2021/07/16 13:58:03;;;;;;;35.42;9.43;;;19.80;99.90;;;;;;3588476;40;20153;-80
2021/07/16 14:00:29;;;;;;;34.20;9.57;;;19.70;99.90;;;;;;3595623;39;20329;-81
2021/07/16 14:02:55;;;;;;;36.47;9.45;;;19.80;99.90;;;;;;3587779;39;20055;-80
2021/07/16 14:05:22;;;;;;;40.65;8.98;;;19.90;99.90;;;;;;3586432;40;20048;-80
2021/07/16 14:07:48;;;;;;;31.23;8.10;;;20.00;99.90;;;;;;3591849;40;20052;-79
2021/07/16 14:10:15;;;;;;;35.50;8.50;;;20.20;99.90;;;;;;3585818;40;20153;-79
2021/07/16 14:12:42;;;;;;;34.03;9.10;;;20.00;99.90;;;;;;3588657;40;20236;-80
2021/07/16 14:15:09;;;;;;;35.45;8.90;;;19.70;99.90;;;;;;3596598;39;20052;-79
2021/07/16 14:17:35;;;;;;;33.58;8.27;;;19.80;99.90;;;;;;3592551;39;20048;-79
2021/07/16 14:20:03;;;;;;;27.08;7.32;;;20.10;99.90;;;;;;3585229;40;20082;-75
2021/07/16 14:22:29;;;;;;;33.50;8.13;;;20.00;99.90;;;;;;3585906;40;20055;-76
2021/07/16 14:24:55;;;;;;;34.42;8.07;;;20.30;99.90;;;;;;3587998;39;20051;-75
2021/07/16 14:27:20;;;;;;;28.27;8.25;;;20.60;99.90;;;;;;3590541;39;20044;-77
2021/07/16 14:29:46;;;;;;;28.50;8.80;;;20.30;99.90;;;;;;3591770;39;20059;-76
2021/07/16 14:32:12;;;;;;;33.05;8.50;;;20.00;99.90;;;;;;3587895;40;20060;-76
2021/07/16 14:34:37;;;;;;;31.83;7.57;;;20.00;99.90;;;;;;3592786;39;20386;-75
2021/07/16 14:37:04;;;;;;;32.67;7.85;;;20.00;99.90;;;;;;3589996;40;20306;-76
2021/07/16 14:39:31;;;;;;;36.53;8.45;;;19.90;99.90;;;;;;3594183;40;20148;-76
2021/07/16 14:41:57;;;;;;;37.42;8.63;;;20.00;99.90;;;;;;3586171;40;20309;-76
2021/07/16 14:44:24;;;;;;;34.80;8.43;;;20.40;99.90;;;;;;3587080;40;20143;-77
2021/07/16 14:46:49;;;;;;;29.23;8.00;;;20.60;99.90;;;;;;3589811;39;20075;-77
2021/07/16 14:49:15;;;;;;;35.25;9.65;;;20.40;99.90;;;;;;3590296;39;20058;-77
2021/07/16 14:51:41;;;;;;;31.95;9.10;;;20.30;99.90;;;;;;3595413;40;20395;-76
2021/07/16 14:54:07;;;;;;;29.75;8.13;;;20.30;99.90;;;;;;3591539;39;20132;-77
2021/07/16 14:56:33;;;;;;;38.15;9.07;;;20.40;99.90;;;;;;3586138;40;20318;-76
2021/07/16 14:58:59;;;;;;;36.35;8.75;;;20.20;99.90;;;;;;3589003;40;20068;-77
2021/07/16 15:01:26;;;;;;;31.17;8.50;;;20.10;99.90;;;;;;3591043;40;20064;-76
2021/07/16 15:03:52;;;;;;;30.60;7.32;;;20.20;99.90;;;;;;3594446;39;20059;-76
2021/07/16 15:06:18;;;;;;;30.55;7.97;;;20.40;99.90;;;;;;3593155;39;20413;-77
2021/07/16 15:08:43;;;;;;;33.67;7.10;;;20.40;99.90;;;;;;3590431;40;20897;-77
2021/07/16 15:11:09;;;;;;;30.92;7.43;;;20.70;99.90;;;;;;3588546;40;20060;-77
2021/07/16 15:13:35;;;;;;;34.65;9.60;;;20.60;99.90;;;;;;3570186;40;20041;-76
2021/07/16 15:16:02;;;;;;;33.22;9.45;;;20.60;99.90;;;;;;3576848;40;20049;-78
2021/07/16 15:18:29;;;;;;;34.58;8.77;;;20.10;99.90;;;;;;3576356;40;20137;-77
2021/07/16 15:20:55;;;;;;;31.55;7.90;;;20.40;99.90;;;;;;3564586;40;20131;-76
2021/07/16 15:23:21;;;;;;;29.27;7.80;;;20.10;99.90;;;;;;3579163;40;20056;-77
2021/07/16 15:25:46;;;;;;;34.50;8.38;;;20.20;99.90;;;;;;3585267;40;20028;-77
2021/07/16 15:28:13;;;;;;;34.13;9.23;;;20.50;99.90;;;;;;3585290;40;20056;-78
2021/07/16 15:30:39;;;;;;;36.60;8.48;;;20.20;99.90;;;;;;3585065;40;20056;-78
2021/07/16 15:33:05;;;;;;;30.23;7.35;;;20.60;99.90;;;;;;3584701;40;20055;-77
2021/07/16 15:35:31;;;;;;;30.10;7.72;;;20.60;99.90;;;;;;3584789;40;20064;-77
2021/07/16 15:37:57;;;;;;;35.28;8.88;;;20.70;99.90;;;;;;3584577;40;20134;-75
2021/07/16 15:40:23;;;;;;;30.17;7.82;;;20.10;99.90;;;;;;3584736;40;20051;-77
2021/07/16 15:42:49;;;;;;;30.15;7.50;;;19.90;99.90;;;;;;3584825;40;20096;-78
2021/07/16 15:45:14;;;;;;;35.00;10.80;;;19.70;99.90;;;;;;3584657;40;20348;-76
2021/07/16 15:47:40;;;;;;;35.97;8.30;;;19.70;99.90;;;;;;3583932;40;20436;-76
2021/07/16 15:50:11;;;;;;;32.13;8.15;;;19.80;99.90;;;;;;3584326;40;20060;-75
2021/07/16 15:52:38;;;;;;;38.20;9.77;;;19.50;99.90;;;;;;3583461;40;20167;-76
2021/07/16 15:55:09;;;;;;;39.40;9.27;;;19.30;99.90;;;;;;3585511;40;20080;-77
2021/07/16 15:57:36;;;;;;;39.42;10.25;;;19.30;99.90;;;;;;3584604;40;20033;-81
2021/07/16 16:00:08;;;;;;;33.72;8.80;;;19.30;99.90;;;;;;3585006;40;20114;-76
2021/07/16 16:02:34;;;;;;;40.63;10.57;;;19.70;99.90;;;;;;3586314;40;20053;-76
2021/07/16 16:04:59;;;;;;;48.78;10.00;;;19.50;99.90;;;;;;3586301;40;20049;-76
2021/07/16 16:07:25;;;;;;;34.75;9.07;;;19.30;99.90;;;;;;3585730;40;20052;-77
2021/07/16 16:09:51;;;;;;;35.55;7.65;;;19.10;99.90;;;;;;3586259;40;20048;-76
2021/07/16 16:12:17;;;;;;;33.33;8.52;;;19.10;99.90;;;;;;3586212;40;20056;-77
2021/07/16 16:14:44;;;;;;;39.67;8.75;;;19.30;99.90;;;;;;3586717;40;20282;-76
2021/07/16 16:17:09;;;;;;;36.45;8.77;;;19.20;99.90;;;;;;3585638;40;20813;-79
2021/07/16 16:19:35;;;;;;;31.58;8.77;;;19.40;99.90;;;;;;3586732;40;20052;-77
2021/07/16 16:22:01;;;;;;;37.05;8.05;;;19.40;99.90;;;;;;3585433;40;20369;-77
2021/07/16 16:24:26;;;;;;;36.50;8.98;;;19.50;99.90;;;;;;3586611;40;20044;-78
2021/07/16 16:26:53;;;;;;;29.85;8.40;;;19.30;99.90;;;;;;3584632;40;20390;-79
2021/07/16 16:29:19;;;;;;;30.00;8.18;;;19.40;99.90;;;;;;3586830;40;20144;-81
2021/07/16 16:31:45;;;;;;;31.98;7.80;;;19.50;99.90;;;;;;3586255;40;20329;-80
2021/07/16 16:34:11;;;;;;;39.67;9.32;;;19.70;99.90;;;;;;3585554;40;20349;-79
2021/07/16 16:36:37;;;;;;;35.72;8.80;;;19.60;99.90;;;;;;3585697;40;20056;-80
2021/07/16 16:39:05;;;;;;;40.90;10.05;;;19.50;99.90;;;;;;3584933;40;20056;-82
2021/07/16 16:41:31;;;;;;;37.72;9.63;;;19.30;99.90;;;;;;3582061;40;20041;-80
2021/07/16 16:43:57;;;;;;;31.50;8.52;;;19.10;99.90;;;;;;3580841;40;20095;-82
2021/07/16 16:46:23;;;;;;;37.83;8.88;;;19.20;99.90;;;;;;3585979;40;20148;-81
2021/07/16 16:48:49;;;;;;;32.58;8.90;;;19.00;99.90;;;;;;3586729;40;20052;-82
2021/07/16 16:51:15;;;;;;;42.10;10.05;;;19.10;99.90;;;;;;3586206;40;20056;-80
2021/07/16 16:53:41;;;;;;;35.47;9.00;;;19.40;99.90;;;;;;3584804;40;20425;-81
2021/07/16 16:56:07;;;;;;;44.85;9.82;;;19.20;99.90;;;;;;3584779;40;20085;-80
2021/07/16 16:58:33;;;;;;;38.97;9.05;;;19.10;99.90;;;;;;3578492;40;20945;-82
2021/07/16 17:00:59;;;;;;;41.10;9.55;;;19.30;99.90;;;;;;3585870;40;20056;-81
2021/07/16 17:03:25;;;;;;;33.20;8.65;;;19.00;99.90;;;;;;3586859;40;20060;-82
2021/07/16 17:05:50;;;;;;;31.58;8.02;;;19.00;99.90;;;;;;3585895;40;20060;-80
2021/07/16 17:08:16;;;;;;;34.30;8.70;;;19.20;99.90;;;;;;3586502;40;20428;-81
2021/07/16 17:10:42;;;;;;;40.65;8.43;;;19.00;99.90;;;;;;3586297;40;20059;-80
2021/07/16 17:13:07;;;;;;;29.75;8.43;;;18.80;99.90;;;;;;3584322;40;20129;-80
2021/07/16 17:15:33;;;;;;;36.17;9.07;;;18.80;99.90;;;;;;3584520;40;20056;-78
2021/07/16 17:17:59;;;;;;;38.30;9.85;;;18.90;99.90;;;;;;3585562;40;20106;-79
2021/07/16 17:20:26;;;;;;;45.47;10.63;;;19.10;99.90;;;;;;3585321;40;20040;-78
2021/07/16 17:22:52;;;;;;;50.83;10.70;;;19.10;99.90;;;;;;3585414;40;20064;-78
2021/07/16 17:25:18;;;;;;;42.10;9.65;;;19.10;99.90;;;;;;3583995;40;20146;-78
2021/07/16 17:27:44;;;;;;;41.38;10.85;;;19.10;99.90;;;;;;3584730;40;20079;-79
2021/07/16 17:30:15;;;;;;;31.95;8.45;;;19.00;99.90;;;;;;3583813;40;20088;-81
2021/07/16 17:32:41;;;;;;;36.08;9.45;;;19.00;99.90;;;;;;3584682;40;20068;-80
2021/07/16 17:35:09;;;;;;;40.85;9.73;;;18.80;99.90;;;;;;3585429;40;20321;-81
2021/07/16 17:37:35;;;;;;;38.22;9.80;;;18.70;99.90;;;;;;3583661;40;20055;-78
2021/07/16 17:40:06;;;;;;;38.28;9.95;;;18.90;99.90;;;;;;3584655;40;20251;-81
2021/07/16 17:42:32;;;;;;;36.65;8.85;;;19.10;99.90;;;;;;3585638;40;20371;-77
2021/07/16 17:44:58;;;;;;;39.17;9.13;;;19.00;99.90;;;;;;3585559;40;20341;-79
2021/07/16 17:47:25;;;;;;;34.83;8.68;;;19.10;99.90;;;;;;3585241;40;20053;-79
2021/07/16 17:49:52;;;;;;;37.55;9.90;;;18.90;99.90;;;;;;3585607;40;20052;-80
2021/07/16 17:52:18;;;;;;;34.13;8.50;;;18.80;99.90;;;;;;3585520;40;20065;-78
2021/07/16 17:54:44;;;;;;;41.00;9.52;;;18.80;99.90;;;;;;3585627;40;20411;-80
2021/07/16 17:57:10;;;;;;;44.78;11.35;;;18.80;99.90;;;;;;3585937;40;20267;-78
2021/07/16 17:59:36;;;;;;;36.65;8.25;;;19.00;99.90;;;;;;3585240;40;20060;-79
2021/07/16 18:02:02;;;;;;;43.35;10.18;;;18.70;99.90;;;;;;3585454;40;20039;-79
2021/07/16 18:04:29;;;;;;;38.58;8.52;;;18.60;99.90;;;;;;3584894;40;20056;-79
2021/07/16 18:06:55;;;;;;;34.38;8.93;;;18.50;99.90;;;;;;3585677;40;20037;-80
2021/07/16 18:09:21;;;;;;;38.50;9.32;;;18.60;99.90;;;;;;3586189;40;20318;-78
2021/07/16 18:11:46;;;;;;;38.53;9.75;;;18.50;99.90;;;;;;3582435;40;20061;-79
2021/07/16 18:14:12;;;;;;;36.60;9.35;;;18.50;99.90;;;;;;3584598;40;20105;-80
2021/07/16 18:16:38;;;;;;;41.10;9.65;;;18.40;99.90;;;;;;3584243;40;20063;-77
2021/07/16 18:19:04;;;;;;;40.65;9.40;;;18.40;99.90;;;;;;3586144;40;20292;-76
2021/07/16 18:21:29;;;;;;;37.03;9.32;;;18.40;99.90;;;;;;3581924;40;20076;-75
2021/07/16 18:23:57;;;;;;;37.25;10.55;;;18.30;99.90;;;;;;3585674;40;20064;-77
2021/07/16 18:26:23;;;;;;;39.78;11.52;;;18.30;99.90;;;;;;3585218;40;20437;-78
2021/07/16 18:28:49;;;;;;;43.15;9.80;;;18.30;99.90;;;;;;3585815;40;20133;-78
2021/07/16 18:31:15;;;;;;;37.53;8.63;;;18.20;99.90;;;;;;3584758;40;20369;-76
2021/07/16 18:33:41;;;;;;;43.63;9.90;;;18.20;99.90;;;;;;3584974;40;20052;-77
2021/07/16 18:36:08;;;;;;;45.22;10.70;;;18.20;99.90;;;;;;3585508;40;20068;-75
2021/07/16 18:38:35;;;;;;;36.67;9.60;;;18.10;99.90;;;;;;3584846;40;20044;-75
2021/07/16 18:41:01;;;;;;;43.70;10.00;;;18.00;99.90;;;;;;3586017;40;20057;-80
2021/07/16 18:43:26;;;;;;;37.92;10.07;;;18.20;99.90;;;;;;3586059;40;20056;-81
2021/07/16 18:45:53;;;;;;;35.35;8.70;;;18.00;99.90;;;;;;3586351;40;20048;-83
2021/07/16 18:48:18;;;;;;;40.20;9.52;;;18.00;99.90;;;;;;3587119;40;20056;-83
2021/07/16 18:50:44;;;;;;;48.85;10.18;;;17.90;99.90;;;;;;3588965;40;20333;-81
2021/07/16 18:53:10;;;;;;;44.72;10.80;;;18.00;99.90;;;;;;3588191;40;20055;-78
2021/07/16 18:55:36;;;;;;;45.67;10.63;;;18.00;99.90;;;;;;3586541;40;20306;-80
2021/07/16 18:58:02;;;;;;;40.00;9.90;;;18.00;99.90;;;;;;3587088;40;20059;-82
2021/07/16 19:00:28;;;;;;;40.38;10.90;;;18.10;99.90;;;;;;3586454;40;20040;-79